Time;durP1;ratioP1;P1;durP2;ratioP2;P2;SDS_P1;SDS_P2;PMS_P1;PMS_P2;Temp;Humidity;BMP_temperature;BMP_pressure;BME280_temperature;BME280_humidity;BME280_pressure;Samples;Min_cycle;Max_cycle;Signal;HPM_P1;HPM_P2
2021/12/14 00:00:00;;;;;;;10.05;5.20;;;;;;;;;;5064569;28;20479;-32
2021/12/14 00:02:28;;;;;;;7.70;5.00;;;;;;;;;;5082627;28;20028;-28
2021/12/14 00:04:55;;;;;;;7.70;4.82;;;;;;;;;;5082440;28;20486;-30
2021/12/14 00:07:21;;;;;;;6.32;4.57;;;;;;;;;;5082403;28;20061;-32
2021/12/14 00:09:46;;;;;;;10.35;4.90;;;;;;;;;;5082286;28;20115;-31
2021/12/14 00:17:28;;;;;;;6.00;4.30;;;;;;;;;;5082944;28;20060;-34
2021/12/14 00:19:56;;;;;;;6.85;4.47;;;;;;;;;;5081628;28;20573;-30
2021/12/14 00:24:05;;;;;;;6.65;4.25;;;;;;;;;;5082605;28;20089;-31
2021/12/14 00:25:16;;;;;;;6.40;3.67;;;;;;;;;;5082580;28;20093;-33
2021/12/14 00:27:42;;;;;;;5.32;4.20;;;;;;;;;;5081813;28;20028;-30
2021/12/14 00:30:07;;;;;;;6.18;3.90;;;;;;;;;;5082462;28;20052;-28
2021/12/14 00:32:35;;;;;;;6.40;3.90;;;;;;;;;;5082462;28;20035;-31
2021/12/14 00:35:02;;;;;;;5.32;3.38;;;;;;;;;;5081869;28;20020;-33
2021/12/14 00:37:33;;;;;;;4.90;3.58;;;;;;;;;;5082746;28;20100;-29
2021/12/14 00:40:03;;;;;;;7.32;3.33;;;;;;;;;;5082229;28;20027;-32
2021/12/14 00:42:29;;;;;;;6.05;4.05;;;;;;;;;;5081730;28;20044;-30
2021/12/14 00:44:54;;;;;;;5.07;3.50;;;;;;;;;;5082306;28;20024;-31
2021/12/14 00:47:20;;;;;;;5.18;3.75;;;;;;;;;;5063741;28;20024;-30
2021/12/14 00:49:46;;;;;;;6.65;3.80;;;;;;;;;;5084622;28;20081;-29
2021/12/14 00:52:11;;;;;;;5.57;3.85;;;;;;;;;;5085693;28;20486;-32
2021/12/14 00:54:37;;;;;;;5.22;3.30;;;;;;;;;;5085749;28;20030;-31
2021/12/14 00:57:03;;;;;;;4.85;3.13;;;;;;;;;;5085635;28;20476;-29
2021/12/14 00:59:29;;;;;;;4.53;3.30;;;;;;;;;;5085632;28;20777;-30
2021/12/14 01:01:59;;;;;;;5.30;3.47;;;;;;;;;;5086098;28;20042;-29
2021/12/14 01:04:28;;;;;;;3.38;2.45;;;;;;;;;;5086015;28;20409;-34
2021/12/14 01:06:53;;;;;;;5.32;3.00;;;;;;;;;;5085759;28;20020;-28
2021/12/14 01:09:23;;;;;;;4.43;3.60;;;;;;;;;;5085832;28;20098;-28
2021/12/14 01:11:49;;;;;;;4.53;3.38;;;;;;;;;;5085693;28;20068;-30
2021/12/14 01:14:16;;;;;;;4.63;3.08;;;;;;;;;;5085943;28;20059;-30
2021/12/14 01:16:51;;;;;;;5.57;3.38;;;;;;;;;;5085186;28;20115;-32
2021/12/14 01:19:24;;;;;;;5.57;2.83;;;;;;;;;;5085621;28;20044;-31
2021/12/14 01:27:31;;;;;;;4.38;3.03;;;;;;;;;;5085869;28;20089;-30
2021/12/14 01:29:56;;;;;;;3.65;2.58;;;;;;;;;;5085034;28;20051;-29
2021/12/14 01:32:25;;;;;;;4.75;3.40;;;;;;;;;;5084780;28;20118;-29
2021/12/14 01:34:51;;;;;;;3.92;2.78;;;;;;;;;;5084657;28;20024;-34
2021/12/14 01:37:20;;;;;;;4.25;2.85;;;;;;;;;;5084999;28;20035;-29
2021/12/14 01:40:02;;;;;;;4.55;2.78;;;;;;;;;;5084951;28;20085;-29
2021/12/14 01:42:33;;;;;;;4.55;2.88;;;;;;;;;;5084640;28;20043;-31
2021/12/14 01:45:12;;;;;;;4.13;2.85;;;;;;;;;;5085268;28;20077;-32
2021/12/14 01:47:46;;;;;;;3.97;2.92;;;;;;;;;;5084633;28;20040;-32
2021/12/14 01:50:23;;;;;;;3.70;2.85;;;;;;;;;;5066637;28;20062;-29
2021/12/14 01:52:49;;;;;;;3.22;2.45;;;;;;;;;;5084721;28;20857;-30
2021/12/14 01:55:19;;;;;;;4.63;2.75;;;;;;;;;;5084447;28;20026;-32
2021/12/14 01:57:45;;;;;;;5.30;2.63;;;;;;;;;;5084785;28;20232;-33
2021/12/14 02:00:22;;;;;;;4.55;2.97;;;;;;;;;;5084003;28;20032;-33
2021/12/14 02:02:48;;;;;;;3.70;2.70;;;;;;;;;;5083923;28;20115;-30
2021/12/14 02:05:21;;;;;;;3.50;2.90;;;;;;;;;;5084783;28;20035;-31
2021/12/14 02:07:47;;;;;;;3.70;2.67;;;;;;;;;;5083979;28;20036;-31
2021/12/14 02:10:30;;;;;;;3.25;2.78;;;;;;;;;;5083799;28;20130;-34
2021/12/14 02:12:55;;;;;;;;;;;;;;;;;;5083891;28;20054;-28
2021/12/14 02:15:25;;;;;;;3.63;2.42;;;;;;;;;;5084155;28;20430;-27
2021/12/14 02:17:51;;;;;;;3.63;2.65;;;;;;;;;;5084010;28;20036;-29
2021/12/14 02:20:21;;;;;;;5.28;3.15;;;;;;;;;;5084475;28;20028;-33
2021/12/14 02:22:46;;;;;;;3.42;2.67;;;;;;;;;;5083765;28;20020;-28
2021/12/14 02:25:12;;;;;;;4.38;2.80;;;;;;;;;;5084374;28;20034;-27
2021/12/14 02:27:39;;;;;;;3.58;2.50;;;;;;;;;;5083810;28;20032;-31
2021/12/14 02:30:07;;;;;;;3.75;2.67;;;;;;;;;;5083675;28;20051;-31
2021/12/14 02:32:33;;;;;;;4.30;2.80;;;;;;;;;;5084243;28;20028;-30
2021/12/14 02:35:00;;;;;;;3.10;2.30;;;;;;;;;;5083710;28;20028;-32
2021/12/14 02:37:42;;;;;;;4.03;2.53;;;;;;;;;;5083825;28;20028;-29
2021/12/14 02:40:19;;;;;;;3.53;2.40;;;;;;;;;;5083966;28;20111;-33
2021/12/14 02:42:46;;;;;;;2.88;2.33;;;;;;;;;;5084029;28;20035;-32
2021/12/14 02:45:11;;;;;;;3.70;2.67;;;;;;;;;;5083627;28;20032;-29
2021/12/14 02:47:37;;;;;;;2.88;2.08;;;;;;;;;;5083114;28;20413;-33
2021/12/14 02:50:04;;;;;;;3.20;2.10;;;;;;;;;;5083619;28;20032;-31
2021/12/14 02:52:36;;;;;;;3.63;2.47;;;;;;;;;;5064794;28;20438;-33
2021/12/14 02:55:10;;;;;;;3.20;2.20;;;;;;;;;;5065846;28;20020;-29
2021/12/14 02:57:37;;;;;;;3.13;2.40;;;;;;;;;;5065112;28;20541;-31
2021/12/14 03:00:15;;;;;;;3.17;2.28;;;;;;;;;;5065247;28;20111;-33
2021/12/14 03:02:41;;;;;;;2.80;2.17;;;;;;;;;;5082983;28;20032;-34
2021/12/14 03:05:20;;;;;;;4.20;2.50;;;;;;;;;;5083591;28;20039;-30
2021/12/14 03:07:49;;;;;;;2.75;2.03;;;;;;;;;;5083509;28;20036;-31
2021/12/14 03:12:46;;;;;;;3.45;2.42;;;;;;;;;;5082918;28;20517;-30
2021/12/14 03:15:16;;;;;;;3.42;2.30;;;;;;;;;;5082855;28;20031;-30
2021/12/14 03:17:43;;;;;;;2.45;2.17;;;;;;;;;;5083239;28;20089;-29
2021/12/14 03:20:16;;;;;;;2.55;2.03;;;;;;;;;;5083080;28;20039;-29
2021/12/14 03:22:44;;;;;;;;;;;;;;;;;;5083325;28;20028;-30
2021/12/14 03:25:09;;;;;;;2.50;1.80;;;;;;;;;;5083370;28;19916;-28
2021/12/14 03:27:38;;;;;;;3.13;2.10;;;;;;;;;;5083071;28;20062;-28
2021/12/14 03:30:06;;;;;;;2.63;1.88;;;;;;;;;;5082466;28;20040;-28
2021/12/14 03:32:34;;;;;;;2.70;1.80;;;;;;;;;;5083151;28;20024;-32
2021/12/14 03:34:59;;;;;;;2.05;1.75;;;;;;;;;;5082550;28;20561;-30
2021/12/14 03:37:25;;;;;;;2.67;1.88;;;;;;;;;;5082890;28;20031;-32
2021/12/14 03:39:57;;;;;;;2.38;1.83;;;;;;;;;;5082570;28;20020;-29
2021/12/14 03:42:33;;;;;;;2.38;1.80;;;;;;;;;;5082114;28;20039;-32
2021/12/14 03:44:59;;;;;;;2.72;1.88;;;;;;;;;;5081999;28;20043;-30
2021/12/14 03:47:32;;;;;;;2.22;1.73;;;;;;;;;;5082437;28;20024;-31
2021/12/14 03:50:05;;;;;;;2.38;1.85;;;;;;;;;;5082347;28;20405;-27
2021/12/14 03:52:32;;;;;;;2.75;1.90;;;;;;;;;;5082460;28;20521;-31
2021/12/14 03:54:59;;;;;;;1.80;1.60;;;;;;;;;;5082563;28;20032;-31
2021/12/14 03:57:24;;;;;;;2.38;1.80;;;;;;;;;;5082645;28;20039;-31
2021/12/14 03:59:50;;;;;;;2.60;1.77;;;;;;;;;;5082665;28;20028;-32
2021/12/14 04:02:18;;;;;;;2.28;1.70;;;;;;;;;;5082440;28;20032;-33
2021/12/14 04:05:04;;;;;;;3.13;2.15;;;;;;;;;;5082283;28;20032;-29
2021/12/14 04:07:29;;;;;;;2.10;1.40;;;;;;;;;;5083044;28;20032;-31
2021/12/14 04:09:55;;;;;;;1.95;1.48;;;;;;;;;;5082665;28;20031;-30
2021/12/14 04:12:21;;;;;;;2.30;1.60;;;;;;;;;;5064169;28;20024;-33
2021/12/14 04:14:50;;;;;;;2.45;1.83;;;;;;;;;;5081990;28;20031;-30
2021/12/14 04:17:16;;;;;;;2.63;1.90;;;;;;;;;;5082847;28;20032;-28
2021/12/14 04:19:42;;;;;;;2.08;1.58;;;;;;;;;;5082089;28;20028;-30
2021/12/14 04:22:13;;;;;;;2.42;1.52;;;;;;;;;;5064661;28;20564;-31
2021/12/14 04:24:40;;;;;;;2.20;1.80;;;;;;;;;;5084177;28;20496;-32
2021/12/14 04:27:09;;;;;;;1.70;1.55;;;;;;;;;;5067740;28;20565;-37
2021/12/14 04:29:34;;;;;;;2.08;1.60;;;;;;;;;;5085418;28;20135;-35
2021/12/14 04:32:00;;;;;;;1.90;1.52;;;;;;;;;;5086732;28;20489;-33
2021/12/14 04:34:25;;;;;;;1.92;1.55;;;;;;;;;;5086719;28;20054;-33
2021/12/14 04:36:52;;;;;;;2.50;1.70;;;;;;;;;;5050639;28;20480;-33
2021/12/14 04:53:10;;;;;;;1.63;1.42;;;;;;;;;;5085917;28;20539;-28
2021/12/14 04:55:40;;;;;;;2.10;1.50;;;;;;;;;;5085813;28;20499;-32
2021/12/14 04:58:06;;;;;;;1.75;1.48;;;;;;;;;;5085747;28;20027;-32
2021/12/14 05:00:33;;;;;;;3.03;1.40;;;;;;;;;;5085576;28;20028;-29
2021/12/14 05:02:59;;;;;;;3.03;1.70;;;;;;;;;;5084441;28;20462;-34
2021/12/14 05:05:31;;;;;;;2.20;1.60;;;;;;;;;;5085180;28;20020;-30
2021/12/14 05:10:37;;;;;;;2.90;1.90;;;;;;;;;;5085773;28;20039;-28
2021/12/14 05:13:03;;;;;;;2.40;1.90;;;;;;;;;;5087979;28;20024;-31
2021/12/14 05:15:28;;;;;;;2.17;1.70;;;;;;;;;;5105200;28;20085;-30
2021/12/14 05:17:54;;;;;;;1.55;1.30;;;;;;;;;;5086679;28;20027;-32
2021/12/14 05:20:19;;;;;;;1.58;1.08;;;;;;;;;;5105406;28;20497;-32
2021/12/14 05:22:45;;;;;;;5.65;1.63;;;;;;;;;;5105589;28;20032;-29
2021/12/14 05:25:24;;;;;;;4.75;1.70;;;;;;;;;;5105758;28;20024;-33
2021/12/14 05:27:57;;;;;;;2.33;1.85;;;;;;;;;;5105844;28;20410;-30
2021/12/14 05:30:25;;;;;;;3.47;1.73;;;;;;;;;;5105663;28;20051;-30
2021/12/14 05:32:59;;;;;;;3.88;1.65;;;;;;;;;;5090149;28;20578;-30
2021/12/14 05:35:24;;;;;;;6.95;2.10;;;;;;;;;;5086646;28;20036;-29
2021/12/14 05:37:53;;;;;;;8.05;2.38;;;;;;;;;;5083888;28;20036;-32
2021/12/14 05:40:40;;;;;;;7.30;2.08;;;;;;;;;;5086907;28;20188;-29
2021/12/14 05:43:07;;;;;;;10.68;3.03;;;;;;;;;;5081138;28;20165;-27
2021/12/14 05:45:42;;;;;;;13.50;2.65;;;;;;;;;;5080221;28;20047;-30
2021/12/14 05:48:08;;;;;;;7.13;2.25;;;;;;;;;;5085164;28;20024;-28
2021/12/14 05:50:40;;;;;;;6.72;2.50;;;;;;;;;;5077978;28;20134;-29
2021/12/14 05:53:05;;;;;;;5.65;2.88;;;;;;;;;;5064903;28;20031;-30
2021/12/14 05:55:33;;;;;;;7.90;2.42;;;;;;;;;;5065130;28;20494;-30
2021/12/14 05:57:59;;;;;;;4.18;2.30;;;;;;;;;;5093639;28;20442;-32
2021/12/14 06:00:27;;;;;;;3.70;2.28;;;;;;;;;;5082518;28;20765;-31
2021/12/14 06:02:53;;;;;;;6.25;1.85;;;;;;;;;;5076262;28;20043;-29
2021/12/14 06:05:19;;;;;;;3.05;2.15;;;;;;;;;;5084129;28;20115;-32
2021/12/14 06:07:45;;;;;;;4.95;2.05;;;;;;;;;;5084521;28;20040;-29
2021/12/14 06:10:11;;;;;;;3.63;1.83;;;;;;;;;;5084443;28;20058;-31
2021/12/14 06:12:37;;;;;;;4.25;1.90;;;;;;;;;;5084010;28;20040;-29
2021/12/14 06:15:04;;;;;;;6.13;1.83;;;;;;;;;;5085039;28;20902;-29
2021/12/14 06:17:35;;;;;;;3.47;2.10;;;;;;;;;;5084710;28;20128;-30
2021/12/14 06:20:13;;;;;;;10.50;2.15;;;;;;;;;;5083273;28;20484;-28
2021/12/14 06:22:39;;;;;;;6.88;2.03;;;;;;;;;;5065649;28;20039;-32
2021/12/14 06:25:11;;;;;;;2.65;1.90;;;;;;;;;;5084236;28;20092;-29
2021/12/14 06:27:37;;;;;;;2.88;2.10;;;;;;;;;;5084082;28;20024;-31
2021/12/14 06:30:06;;;;;;;4.03;1.90;;;;;;;;;;5084274;28;20051;-31
2021/12/14 06:32:39;;;;;;;2.42;1.80;;;;;;;;;;5073563;28;20041;-32
2021/12/14 06:35:32;;;;;;;2.27;1.93;;;;;;;;;;5063870;28;20648;-31
2021/12/14 06:41:04;;;;;;;2.65;1.90;;;;;;;;;;5083891;28;20048;-33
2021/12/14 06:43:41;;;;;;;4.07;2.10;;;;;;;;;;5082029;28;20083;-32
2021/12/14 06:46:11;;;;;;;2.83;2.22;;;;;;;;;;5083249;28;20111;-29
2021/12/14 06:48:44;;;;;;;2.75;1.95;;;;;;;;;;5083952;28;20557;-31
2021/12/14 06:51:11;;;;;;;;;;;;;;;;;;5083570;28;20031;-32
2021/12/14 06:53:36;;;;;;;3.42;1.90;;;;;;;;;;5073919;28;20405;-33
2021/12/14 06:56:05;;;;;;;2.55;1.98;;;;;;;;;;5070041;28;20024;-29
2021/12/14 06:58:33;;;;;;;4.25;2.15;;;;;;;;;;5083620;28;20040;-30
2021/12/14 07:01:06;;;;;;;3.03;2.30;;;;;;;;;;5082757;28;20040;-29
2021/12/14 07:03:42;;;;;;;;;;;;;;;;;;5083011;28;20118;-35
2021/12/14 07:06:07;;;;;;;2.35;2.05;;;;;;;;;;5082801;28;19923;-29
2021/12/14 07:08:33;;;;;;;2.45;2.10;;;;;;;;;;5081945;28;20024;-33
2021/12/14 07:10:58;;;;;;;2.60;2.20;;;;;;;;;;5083316;28;20042;-34
2021/12/14 07:13:35;;;;;;;2.97;2.13;;;;;;;;;;5083048;28;20065;-31
2021/12/14 07:16:11;;;;;;;2.72;2.50;;;;;;;;;;5082421;28;20028;-30
2021/12/14 07:18:37;;;;;;;3.00;2.40;;;;;;;;;;5081309;28;20585;-30
2021/12/14 07:21:02;;;;;;;2.88;2.30;;;;;;;;;;5071362;28;20026;-29
2021/12/14 07:23:33;;;;;;;2.60;2.20;;;;;;;;;;5082649;28;20191;-31
2021/12/14 07:26:04;;;;;;;3.65;2.40;;;;;;;;;;5083206;28;20043;-31
2021/12/14 07:28:32;;;;;;;3.40;2.47;;;;;;;;;;5082731;28;20062;-28
2021/12/14 07:31:00;;;;;;;2.80;2.38;;;;;;;;;;5078487;28;20028;-31
2021/12/14 07:33:28;;;;;;;2.70;2.30;;;;;;;;;;5074830;28;20032;-29
2021/12/14 07:35:56;;;;;;;3.92;2.72;;;;;;;;;;5076137;28;20071;-32
2021/12/14 07:38:29;;;;;;;2.58;2.10;;;;;;;;;;5082555;28;20520;-31
2021/12/14 07:40:59;;;;;;;3.50;2.67;;;;;;;;;;5083167;28;20055;-31
2021/12/14 07:43:28;;;;;;;4.93;2.78;;;;;;;;;;5070222;28;20032;-28
2021/12/14 07:45:54;;;;;;;8.68;4.63;;;;;;;;;;5077346;28;20055;-29
2021/12/14 07:48:20;;;;;;;5.00;3.60;;;;;;;;;;5077513;28;20028;-33
2021/12/14 07:50:54;;;;;;;10.88;3.72;;;;;;;;;;5079221;28;20517;-29
2021/12/14 07:53:30;;;;;;;5.47;3.63;;;;;;;;;;5065621;28;20528;-30
2021/12/14 07:55:56;;;;;;;6.15;3.78;;;;;;;;;;5082926;28;20169;-28
2021/12/14 07:58:54;;;;;;;7.65;3.40;;;;;;;;;;5064271;28;20108;-28
2021/12/14 08:01:20;;;;;;;6.47;3.78;;;;;;;;;;5037710;28;20067;-30
2021/12/14 08:03:46;;;;;;;5.47;3.55;;;;;;;;;;5082209;28;20566;-34
2021/12/14 08:06:12;;;;;;;5.78;3.47;;;;;;;;;;5082520;28;20077;-32
2021/12/14 08:08:44;;;;;;;4.38;3.33;;;;;;;;;;5081511;28;20028;-32
2021/12/14 08:14:10;;;;;;;7.73;3.73;;;;;;;;;;5083139;28;20032;-29
2021/12/14 08:16:45;;;;;;;5.70;3.65;;;;;;;;;;5082321;28;20039;-33
2021/12/14 08:19:15;;;;;;;5.22;3.45;;;;;;;;;;5082670;28;20052;-33
2021/12/14 08:21:42;;;;;;;6.13;3.30;;;;;;;;;;5080068;28;20036;-35
2021/12/14 08:24:08;;;;;;;6.55;3.30;;;;;;;;;;5080822;28;20024;-36
2021/12/14 08:26:33;;;;;;;5.30;3.60;;;;;;;;;;5082778;28;20107;-31
2021/12/14 08:29:05;;;;;;;3.60;3.13;;;;;;;;;;5082010;28;20151;-33
2021/12/14 08:31:40;;;;;;;6.43;3.77;;;;;;;;;;5062373;28;20034;-29
2021/12/14 08:34:08;;;;;;;5.88;3.05;;;;;;;;;;5062069;28;20271;-29
2021/12/14 08:36:42;;;;;;;4.78;3.33;;;;;;;;;;5062489;28;20052;-29
2021/12/14 08:39:19;;;;;;;5.05;3.38;;;;;;;;;;5062028;28;20028;-33
2021/12/14 08:41:56;;;;;;;5.93;3.15;;;;;;;;;;5062240;28;20032;-28
2021/12/14 08:44:35;;;;;;;4.28;3.25;;;;;;;;;;5081927;28;20436;-29
2021/12/14 08:47:06;;;;;;;5.00;3.25;;;;;;;;;;5064635;28;20039;-32
2021/12/14 08:49:31;;;;;;;4.80;3.60;;;;;;;;;;5082587;28;20028;-33
2021/12/14 08:51:57;;;;;;;4.13;3.13;;;;;;;;;;5081715;28;20028;-31
2021/12/14 08:54:26;;;;;;;4.00;3.38;;;;;;;;;;5082400;28;20024;-33
2021/12/14 08:56:56;;;;;;;4.65;3.92;;;;;;;;;;5064792;28;20060;-32
2021/12/14 08:59:22;;;;;;;4.63;2.85;;;;;;;;;;5082114;28;20039;-30
2021/12/14 09:01:48;;;;;;;5.65;3.33;;;;;;;;;;5067400;28;20032;-29
2021/12/14 09:04:17;;;;;;;8.50;3.58;;;;;;;;;;5061567;28;20506;-34
2021/12/14 09:06:44;;;;;;;4.55;3.58;;;;;;;;;;5070338;28;20036;-30
2021/12/14 09:09:12;;;;;;;5.80;3.13;;;;;;;;;;5075417;28;20647;-35
2021/12/14 09:11:39;;;;;;;5.47;3.88;;;;;;;;;;5085046;28;20028;-29
2021/12/14 09:14:05;;;;;;;5.38;3.42;;;;;;;;;;5085579;28;20023;-30
2021/12/14 09:16:31;;;;;;;5.28;3.75;;;;;;;;;;5085897;28;20032;-32
2021/12/14 09:19:04;;;;;;;4.53;3.38;;;;;;;;;;5084781;28;20039;-28
2021/12/14 09:21:32;;;;;;;;;;;;;;;;;;5084893;28;20043;-32
2021/12/14 09:24:02;;;;;;;4.75;3.78;;;;;;;;;;5063920;28;19916;-30
2021/12/14 09:26:31;;;;;;;4.63;3.30;;;;;;;;;;5070013;28;20036;-30
2021/12/14 09:28:57;;;;;;;4.40;3.53;;;;;;;;;;5069643;28;20101;-31
2021/12/14 09:31:25;;;;;;;4.50;3.42;;;;;;;;;;5084953;28;20441;-30
2021/12/14 09:33:51;;;;;;;5.30;3.60;;;;;;;;;;5085090;28;20034;-28
2021/12/14 09:36:17;;;;;;;7.63;3.70;;;;;;;;;;5085408;28;20028;-31
2021/12/14 09:38:48;;;;;;;5.13;3.53;;;;;;;;;;5079939;28;20024;-31
2021/12/14 09:41:15;;;;;;;6.53;3.63;;;;;;;;;;5077277;28;20619;-31
2021/12/14 09:43:41;;;;;;;3.85;3.35;;;;;;;;;;5085054;28;20405;-29
2021/12/14 09:46:07;;;;;;;5.15;3.25;;;;;;;;;;5066452;28;20452;-29
2021/12/14 09:48:36;;;;;;;4.22;3.10;;;;;;;;;;5066577;28;20089;-30
2021/12/14 09:51:07;;;;;;;4.43;2.83;;;;;;;;;;5085046;28;20028;-28
2021/12/14 09:53:35;;;;;;;3.80;2.88;;;;;;;;;;5084963;28;20037;-32
2021/12/14 09:56:00;;;;;;;3.83;3.03;;;;;;;;;;5085106;28;20028;-28
2021/12/14 09:58:29;;;;;;;3.90;3.17;;;;;;;;;;5085420;28;20549;-29
2021/12/14 10:01:00;;;;;;;4.22;2.97;;;;;;;;;;5078683;28;20032;-32
2021/12/14 10:03:25;;;;;;;3.70;3.15;;;;;;;;;;5085165;28;20339;-31
2021/12/14 10:06:04;;;;;;;3.80;2.92;;;;;;;;;;5084734;28;20386;-33
2021/12/14 10:08:35;;;;;;;5.00;3.08;;;;;;;;;;5084127;28;20031;-28
2021/12/14 10:11:08;;;;;;;3.35;2.88;;;;;;;;;;5084601;28;20024;-30
2021/12/14 10:13:37;;;;;;;4.50;3.13;;;;;;;;;;5073072;28;20047;-32
2021/12/14 10:16:04;;;;;;;3.22;2.78;;;;;;;;;;5064204;28;20135;-30
2021/12/14 10:18:32;;;;;;;3.60;2.90;;;;;;;;;;5064506;28;20028;-29
2021/12/14 10:21:09;;;;;;;3.20;2.75;;;;;;;;;;5063282;28;20068;-29
2021/12/14 10:23:35;;;;;;;3.58;2.78;;;;;;;;;;5071315;28;20068;-33
2021/12/14 10:26:01;;;;;;;3.40;3.10;;;;;;;;;;5084271;28;20039;-31
2021/12/14 10:28:27;;;;;;;3.47;2.75;;;;;;;;;;5083156;28;20060;-29
2021/12/14 10:30:59;;;;;;;3.30;2.90;;;;;;;;;;5082805;28;20078;-29
2021/12/14 10:33:26;;;;;;;3.65;2.88;;;;;;;;;;5063769;28;20089;-29
2021/12/14 10:35:57;;;;;;;3.95;2.70;;;;;;;;;;5069417;28;20406;-31
2021/12/14 10:38:36;;;;;;;5.40;2.67;;;;;;;;;;5074912;28;20029;-30
2021/12/14 10:43:54;;;;;;;3.55;2.60;;;;;;;;;;5071242;28;20748;-29
2021/12/14 10:46:25;;;;;;;3.53;3.00;;;;;;;;;;5083881;28;20024;-28
2021/12/14 10:48:51;;;;;;;3.17;2.55;;;;;;;;;;5083573;28;20039;-32
2021/12/14 10:51:19;;;;;;;3.50;2.75;;;;;;;;;;5076433;28;20024;-27
2021/12/14 10:53:47;;;;;;;2.95;2.42;;;;;;;;;;5081890;28;20028;-29
2021/12/14 10:56:18;;;;;;;2.95;2.60;;;;;;;;;;5083641;28;20024;-28
2021/12/14 10:58:45;;;;;;;3.95;2.90;;;;;;;;;;5083579;28;20074;-29
2021/12/14 11:01:14;;;;;;;3.13;2.70;;;;;;;;;;5083428;28;20024;-32
2021/12/14 11:03:43;;;;;;;3.58;2.72;;;;;;;;;;5083694;28;20035;-31
2021/12/14 11:06:12;;;;;;;3.10;2.70;;;;;;;;;;5083696;28;20032;-32
2021/12/14 11:08:48;;;;;;;3.80;2.80;;;;;;;;;;5078257;28;20032;-31
2021/12/14 11:11:38;;;;;;;3.00;2.70;;;;;;;;;;5076484;28;20043;-31
2021/12/14 11:14:08;;;;;;;3.65;3.03;;;;;;;;;;5070843;28;20040;-29
2021/12/14 11:19:40;;;;;;;2.88;2.42;;;;;;;;;;5067147;28;20517;-34
2021/12/14 11:22:14;;;;;;;4.05;2.92;;;;;;;;;;5082305;28;20039;-32
2021/12/14 11:24:40;;;;;;;3.55;2.90;;;;;;;;;;5067050;28;20036;-32
2021/12/14 11:27:22;;;;;;;7.60;3.30;;;;;;;;;;5064148;28;20044;-31
2021/12/14 11:29:55;;;;;;;3.60;2.97;;;;;;;;;;5075130;28;20040;-29
2021/12/14 11:32:22;;;;;;;4.18;2.92;;;;;;;;;;5062720;28;20032;-31
2021/12/14 11:34:48;;;;;;;4.10;2.97;;;;;;;;;;5062635;28;20024;-33
2021/12/14 11:37:18;;;;;;;4.40;3.10;;;;;;;;;;5075306;28;20111;-28
2021/12/14 11:39:47;;;;;;;4.15;3.05;;;;;;;;;;5062909;28;20025;-32
2021/12/14 11:42:18;;;;;;;6.40;3.20;;;;;;;;;;5062776;28;20048;-29
2021/12/14 11:45:01;;;;;;;6.57;3.22;;;;;;;;;;5077379;28;20047;-29
2021/12/14 11:50:37;;;;;;;4.25;3.20;;;;;;;;;;5082812;28;20036;-31
2021/12/14 11:53:13;;;;;;;5.03;3.20;;;;;;;;;;5080026;28;20068;-31
2021/12/14 11:55:51;;;;;;;6.05;3.80;;;;;;;;;;5071421;28;20035;-31
2021/12/14 11:58:30;;;;;;;5.07;3.22;;;;;;;;;;5076158;28;20506;-34
2021/12/14 12:01:07;;;;;;;4.35;3.78;;;;;;;;;;5062633;28;20028;-28
2021/12/14 12:03:56;;;;;;;6.05;3.42;;;;;;;;;;5076928;28;20039;-30
2021/12/14 12:06:45;;;;;;;5.00;3.05;;;;;;;;;;5077155;28;20032;-34
2021/12/14 12:09:30;;;;;;;6.40;3.83;;;;;;;;;;5076901;28;20239;-31
2021/12/14 12:12:05;;;;;;;6.05;4.07;;;;;;;;;;5073093;28;20174;-30
2021/12/14 12:14:35;;;;;;;5.15;3.90;;;;;;;;;;5072228;28;20035;-31
2021/12/14 12:17:34;;;;;;;5.47;4.03;;;;;;;;;;5074330;28;20024;-29
2021/12/14 12:20:28;;;;;;;6.30;3.92;;;;;;;;;;5082158;28;20038;-29
2021/12/14 12:23:05;;;;;;;5.93;4.10;;;;;;;;;;5073028;28;20102;-30
2021/12/14 12:25:43;;;;;;;5.43;4.13;;;;;;;;;;5081689;28;20024;-27
2021/12/14 12:28:23;;;;;;;5.88;4.22;;;;;;;;;;5073218;28;20028;-34
2021/12/14 12:31:05;;;;;;;5.13;3.92;;;;;;;;;;5079576;28;20097;-31
2021/12/14 12:33:33;;;;;;;6.70;3.30;;;;;;;;;;5072280;28;20429;-33
2021/12/14 12:36:23;;;;;;;6.57;3.95;;;;;;;;;;5082095;28;20064;-29
2021/12/14 12:39:07;;;;;;;7.25;3.95;;;;;;;;;;5081450;28;20030;-32
2021/12/14 12:41:52;;;;;;;9.40;4.88;;;;;;;;;;5077020;28;20029;-33
2021/12/14 12:44:22;;;;;;;9.60;4.55;;;;;;;;;;5081539;28;20119;-32
2021/12/14 12:47:21;;;;;;;8.18;3.78;;;;;;;;;;5085356;28;20036;-36
2021/12/14 12:49:50;;;;;;;5.78;3.75;;;;;;;;;;5066024;28;20074;-32
2021/12/14 12:52:30;;;;;;;4.82;3.70;;;;;;;;;;5065244;28;20058;-31
2021/12/14 12:55:03;;;;;;;6.60;4.25;;;;;;;;;;5065145;28;20040;-29
2021/12/14 12:57:55;;;;;;;6.13;4.10;;;;;;;;;;5065781;28;20066;-30
2021/12/14 13:00:37;;;;;;;4.22;3.40;;;;;;;;;;5065541;28;20043;-32
2021/12/14 13:03:13;;;;;;;5.05;4.10;;;;;;;;;;5064791;28;20106;-33
2021/12/14 13:05:53;;;;;;;5.63;3.58;;;;;;;;;;5064973;28;20039;-30
2021/12/14 13:08:41;;;;;;;5.28;3.90;;;;;;;;;;5065046;28;20032;-31
2021/12/14 13:11:11;;;;;;;4.28;3.38;;;;;;;;;;5064252;28;20036;-31
2021/12/14 13:13:45;;;;;;;6.30;3.47;;;;;;;;;;5065562;28;20029;-35
2021/12/14 13:16:14;;;;;;;4.28;3.13;;;;;;;;;;5047644;28;20081;-31
2021/12/14 13:18:45;;;;;;;4.93;3.78;;;;;;;;;;5065637;28;20858;-28
2021/12/14 13:21:19;;;;;;;6.10;3.40;;;;;;;;;;5065931;28;20056;-30
2021/12/14 13:24:00;;;;;;;4.38;2.83;;;;;;;;;;5065796;28;20785;-31
2021/12/14 13:26:45;;;;;;;4.40;3.30;;;;;;;;;;5065668;28;20033;-33
2021/12/14 13:29:11;;;;;;;4.15;3.33;;;;;;;;;;5065153;28;21068;-32
2021/12/14 13:31:39;;;;;;;4.75;3.17;;;;;;;;;;5065958;28;20044;-33
2021/12/14 13:34:08;;;;;;;6.30;3.20;;;;;;;;;;5065361;28;20039;-30
2021/12/14 13:36:34;;;;;;;5.03;2.97;;;;;;;;;;5065302;28;20143;-28
2021/12/14 13:38:59;;;;;;;4.35;3.20;;;;;;;;;;5064775;28;20166;-36
2021/12/14 13:41:58;;;;;;;5.10;3.83;;;;;;;;;;5064567;28;20127;-32
2021/12/14 13:44:28;;;;;;;4.15;3.03;;;;;;;;;;5064950;28;20032;-30
2021/12/14 13:46:54;;;;;;;3.70;3.08;;;;;;;;;;5064992;28;20023;-34
2021/12/14 13:49:19;;;;;;;3.63;3.13;;;;;;;;;;5064851;28;20495;-34
2021/12/14 13:51:45;;;;;;;3.80;3.33;;;;;;;;;;5065539;28;20024;-31
2021/12/14 13:54:11;;;;;;;4.53;3.40;;;;;;;;;;5046955;28;20060;-31
2021/12/14 13:56:38;;;;;;;5.82;3.28;;;;;;;;;;5064390;28;20024;-30
2021/12/14 13:59:04;;;;;;;3.47;3.00;;;;;;;;;;5064501;28;20020;-30
2021/12/14 14:01:33;;;;;;;4.25;3.42;;;;;;;;;;5064531;28;20028;-34
2021/12/14 14:04:01;;;;;;;4.55;3.50;;;;;;;;;;5064491;28;20032;-32
2021/12/14 14:06:27;;;;;;;3.88;3.30;;;;;;;;;;5064919;28;20028;-33
2021/12/14 14:09:08;;;;;;;4.78;3.42;;;;;;;;;;5065003;28;20601;-29
2021/12/14 14:11:40;;;;;;;4.43;3.78;;;;;;;;;;5064634;28;20086;-33
2021/12/14 14:14:08;;;;;;;4.88;3.70;;;;;;;;;;5064274;28;20772;-32
2021/12/14 14:16:38;;;;;;;4.55;3.70;;;;;;;;;;5045892;28;20028;-31
2021/12/14 14:19:09;;;;;;;4.20;3.33;;;;;;;;;;5049519;28;20039;-33
2021/12/14 14:21:35;;;;;;;4.95;3.60;;;;;;;;;;5084588;28;20491;-32
2021/12/14 14:24:01;;;;;;;4.97;4.38;;;;;;;;;;5084765;28;20024;-34
2021/12/14 14:26:30;;;;;;;4.68;3.83;;;;;;;;;;5084580;28;20120;-33
2021/12/14 14:29:10;;;;;;;4.63;4.00;;;;;;;;;;5084844;28;20052;-32
2021/12/14 14:31:50;;;;;;;4.13;3.67;;;;;;;;;;5081078;28;20028;-32
2021/12/14 14:34:28;;;;;;;4.78;3.80;;;;;;;;;;5064015;28;20032;-34
2021/12/14 14:37:16;;;;;;;5.20;4.00;;;;;;;;;;5063567;28;20028;-31
2021/12/14 14:39:49;;;;;;;6.03;4.47;;;;;;;;;;5063822;28;20085;-31
2021/12/14 14:42:28;;;;;;;5.55;4.78;;;;;;;;;;5063623;28;20024;-29
2021/12/14 14:44:56;;;;;;;7.07;4.82;;;;;;;;;;5063663;28;20029;-34
2021/12/14 14:47:38;;;;;;;6.13;4.80;;;;;;;;;;5064282;28;20691;-30
2021/12/14 14:50:18;;;;;;;6.13;5.00;;;;;;;;;;5063573;28;20035;-33
2021/12/14 14:52:56;;;;;;;6.00;4.63;;;;;;;;;;5063375;28;20518;-32
2021/12/14 14:55:35;;;;;;;7.13;5.10;;;;;;;;;;5063991;28;20040;-30
2021/12/14 14:58:36;;;;;;;6.45;4.95;;;;;;;;;;5063615;28;20056;-29
2021/12/14 15:01:21;;;;;;;7.93;6.00;;;;;;;;;;5063736;28;20727;-32
2021/12/14 15:03:57;;;;;;;7.38;5.68;;;;;;;;;;5063431;28;20032;-30
2021/12/14 15:06:28;;;;;;;9.07;6.50;;;;;;;;;;5064236;28;20059;-35
2021/12/14 15:08:59;;;;;;;7.85;6.40;;;;;;;;;;5062521;28;20032;-28
2021/12/14 15:11:41;;;;;;;8.85;6.55;;;;;;;;;;5063488;28;20112;-36
2021/12/14 15:14:26;;;;;;;7.93;6.60;;;;;;;;;;5063345;28;20930;-28
2021/12/14 15:16:55;;;;;;;9.70;6.82;;;;;;;;;;5063257;28;20090;-33
2021/12/14 15:19:37;;;;;;;10.25;7.30;;;;;;;;;;5063638;28;20628;-33
2021/12/14 15:22:08;;;;;;;8.60;6.57;;;;;;;;;;5062578;28;20032;-30
2021/12/14 15:24:54;;;;;;;10.38;7.40;;;;;;;;;;5062969;28;20024;-30
2021/12/14 15:27:26;;;;;;;10.75;7.63;;;;;;;;;;5081520;28;20044;-30
2021/12/14 15:30:18;;;;;;;14.00;8.70;;;;;;;;;;5067476;28;20048;-30
2021/12/14 15:32:54;;;;;;;14.95;7.88;;;;;;;;;;5083339;28;20472;-30
2021/12/14 15:35:42;;;;;;;13.75;8.13;;;;;;;;;;5094357;28;20032;-31
2021/12/14 15:38:16;;;;;;;10.77;7.18;;;;;;;;;;5076441;28;20101;-29
2021/12/14 15:41:03;;;;;;;10.60;7.93;;;;;;;;;;5086479;28;20028;-30
2021/12/14 15:43:31;;;;;;;12.40;8.13;;;;;;;;;;5078668;28;20039;-32
2021/12/14 15:45:59;;;;;;;13.73;8.70;;;;;;;;;;5078725;28;20031;-31
2021/12/14 15:48:25;;;;;;;14.30;9.27;;;;;;;;;;5079438;28;20078;-33
2021/12/14 15:51:00;;;;;;;14.00;8.98;;;;;;;;;;5082637;28;20059;-30